sensor_id;sensor_type;location;lat;lon;timestamp;pressure;altitude;pressure_sealevel;temperature;humidity
46366;BME280;72328;49.570;8.722;2023-12-28T00:01:01;99683.94;;;13.81;55.61
46366;BME280;72328;49.570;8.722;2023-12-28T00:05:02;99708.19;;;13.80;55.88
46366;BME280;72328;49.570;8.722;2023-12-28T00:09:03;99687.09;;;13.85;55.56
46366;BME280;72328;49.570;8.722;2023-12-28T00:13:04;99690.25;;;13.88;55.70
46366;BME280;72328;49.570;8.722;2023-12-28T00:17:05;99684.13;;;13.89;55.57
46366;BME280;72328;49.570;8.722;2023-12-28T00:21:05;99689.88;;;13.93;55.43
46366;BME280;72328;49.570;8.722;2023-12-28T00:25:06;99694.94;;;13.94;55.24
46366;BME280;72328;49.570;8.722;2023-12-28T00:29:07;99698.34;;;13.95;55.49
46366;BME280;72328;49.570;8.722;2023-12-28T00:33:08;99710.91;;;13.99;55.40
46366;BME280;72328;49.570;8.722;2023-12-28T00:37:08;99702.34;;;13.99;54.74
46366;BME280;72328;49.570;8.722;2023-12-28T00:41:09;99692.00;;;13.99;54.52
46366;BME280;72328;49.570;8.722;2023-12-28T00:45:10;99689.81;;;14.04;54.52
46366;BME280;72328;49.570;8.722;2023-12-28T00:49:10;99699.09;;;14.06;54.23
46366;BME280;72328;49.570;8.722;2023-12-28T00:53:11;99708.38;;;14.09;54.10
46366;BME280;72328;49.570;8.722;2023-12-28T00:57:12;99694.53;;;14.10;54.11
46366;BME280;72328;49.570;8.722;2023-12-28T01:01:15;99692.38;;;14.15;54.39
46366;BME280;72328;49.570;8.722;2023-12-28T01:05:16;99696.25;;;14.20;54.30
46366;BME280;72328;49.570;8.722;2023-12-28T01:09:17;99696.81;;;14.24;54.25
46366;BME280;72328;49.570;8.722;2023-12-28T01:13:18;99712.34;;;14.24;53.80
46366;BME280;72328;49.570;8.722;2023-12-28T01:17:19;99710.06;;;14.30;53.87
46366;BME280;72328;49.570;8.722;2023-12-28T01:21:20;99721.84;;;14.34;53.78
46366;BME280;72328;49.570;8.722;2023-12-28T01:25:20;99721.72;;;14.36;53.85
46366;BME280;72328;49.570;8.722;2023-12-28T01:29:21;99720.88;;;14.35;53.82
46366;BME280;72328;49.570;8.722;2023-12-28T01:33:22;99727.56;;;14.38;52.64
46366;BME280;72328;49.570;8.722;2023-12-28T01:37:23;99724.03;;;14.39;53.14
46366;BME280;72328;49.570;8.722;2023-12-28T01:41:26;99725.81;;;14.38;53.20
46366;BME280;72328;49.570;8.722;2023-12-28T01:45:27;99718.84;;;14.39;52.63
46366;BME280;72328;49.570;8.722;2023-12-28T01:49:28;99729.78;;;14.42;53.41
46366;BME280;72328;49.570;8.722;2023-12-28T01:53:28;99732.81;;;14.47;53.05
46366;BME280;72328;49.570;8.722;2023-12-28T01:57:29;99728.47;;;14.48;53.38
46366;BME280;72328;49.570;8.722;2023-12-28T02:01:30;99737.63;;;14.52;53.09
46366;BME280;72328;49.570;8.722;2023-12-28T02:05:31;99747.84;;;14.53;52.78
46366;BME280;72328;49.570;8.722;2023-12-28T02:09:33;99738.06;;;14.57;52.78
46366;BME280;72328;49.570;8.722;2023-12-28T02:13:34;99745.00;;;14.56;52.32
46366;BME280;72328;49.570;8.722;2023-12-28T02:21:39;99768.25;;;14.67;52.22
46366;BME280;72328;49.570;8.722;2023-12-28T02:25:40;99752.69;;;14.67;51.71
46366;BME280;72328;49.570;8.722;2023-12-28T02:29:41;99753.38;;;14.69;52.27
46366;BME280;72328;49.570;8.722;2023-12-28T02:38:17;99768.28;;;14.77;52.15
46366;BME280;72328;49.570;8.722;2023-12-28T02:42:18;99744.03;;;14.78;52.16
46366;BME280;72328;49.570;8.722;2023-12-28T02:46:19;99737.75;;;14.80;52.24
46366;BME280;72328;49.570;8.722;2023-12-28T02:50:19;99748.56;;;14.85;52.50
46366;BME280;72328;49.570;8.722;2023-12-28T02:54:20;99751.97;;;14.86;52.22
46366;BME280;72328;49.570;8.722;2023-12-28T02:58:21;99759.75;;;14.86;52.32
46366;BME280;72328;49.570;8.722;2023-12-28T03:02:22;99759.09;;;14.84;52.13
46366;BME280;72328;49.570;8.722;2023-12-28T03:06:25;99759.19;;;14.82;51.84
46366;BME280;72328;49.570;8.722;2023-12-28T03:10:26;99762.34;;;14.86;52.14
46366;BME280;72328;49.570;8.722;2023-12-28T03:14:26;99776.00;;;14.88;51.86
46366;BME280;72328;49.570;8.722;2023-12-28T03:18:27;99778.88;;;14.85;51.94
46366;BME280;72328;49.570;8.722;2023-12-28T03:22:28;99773.56;;;14.86;51.14
46366;BME280;72328;49.570;8.722;2023-12-28T03:26:28;99774.63;;;14.84;51.37
46366;BME280;72328;49.570;8.722;2023-12-28T03:30:29;99804.66;;;14.86;51.60
46366;BME280;72328;49.570;8.722;2023-12-28T03:34:30;99771.09;;;14.85;51.70
46366;BME280;72328;49.570;8.722;2023-12-28T03:38:31;99782.53;;;14.82;51.90
46366;BME280;72328;49.570;8.722;2023-12-28T03:42:31;99766.16;;;14.82;51.57
46366;BME280;72328;49.570;8.722;2023-12-28T03:46:32;99759.09;;;14.84;51.56
46366;BME280;72328;49.570;8.722;2023-12-28T03:50:34;99760.16;;;14.81;51.74
46366;BME280;72328;49.570;8.722;2023-12-28T03:54:34;99785.13;;;14.82;51.82
46366;BME280;72328;49.570;8.722;2023-12-28T03:58:35;99771.22;;;14.83;51.73
46366;BME280;72328;49.570;8.722;2023-12-28T04:02:36;99772.28;;;14.81;51.88
46366;BME280;72328;49.570;8.722;2023-12-28T04:06:37;99785.53;;;14.78;51.87
46366;BME280;72328;49.570;8.722;2023-12-28T04:10:38;99796.69;;;14.78;51.78
46366;BME280;72328;49.570;8.722;2023-12-28T04:14:39;99796.97;;;14.75;51.95
46366;BME280;72328;49.570;8.722;2023-12-28T04:18:43;99782.59;;;14.71;51.88
46366;BME280;72328;49.570;8.722;2023-12-28T04:22:44;99785.44;;;14.68;51.80
46366;BME280;72328;49.570;8.722;2023-12-28T04:26:45;99779.53;;;14.57;51.76
46366;BME280;72328;49.570;8.722;2023-12-28T04:30:45;99787.53;;;14.54;51.98
46366;BME280;72328;49.570;8.722;2023-12-28T04:34:46;99790.97;;;14.54;52.03
46366;BME280;72328;49.570;8.722;2023-12-28T04:38:47;99818.63;;;14.54;52.27
46366;BME280;72328;49.570;8.722;2023-12-28T04:42:47;99790.53;;;14.49;52.28
46366;BME280;72328;49.570;8.722;2023-12-28T04:46:48;99774.53;;;14.44;52.39
46366;BME280;72328;49.570;8.722;2023-12-28T04:50:49;99803.03;;;14.44;52.29
46366;BME280;72328;49.570;8.722;2023-12-28T04:54:50;99791.94;;;14.42;52.50
46366;BME280;72328;49.570;8.722;2023-12-28T04:58:51;99817.16;;;14.40;52.36
46366;BME280;72328;49.570;8.722;2023-12-28T05:02:52;99813.91;;;14.38;52.46
46366;BME280;72328;49.570;8.722;2023-12-28T05:06:52;99809.78;;;14.36;52.33
46366;BME280;72328;49.570;8.722;2023-12-28T05:10:55;99829.44;;;14.38;52.61
46366;BME280;72328;49.570;8.722;2023-12-28T05:14:55;99821.34;;;14.32;52.47
46366;BME280;72328;49.570;8.722;2023-12-28T05:18:56;99829.34;;;14.29;52.82
46366;BME280;72328;49.570;8.722;2023-12-28T05:22:57;99823.59;;;14.25;52.67
46366;BME280;72328;49.570;8.722;2023-12-28T05:26:57;99831.59;;;14.22;52.79
46366;BME280;72328;49.570;8.722;2023-12-28T05:30:58;99852.44;;;14.21;52.94
46366;BME280;72328;49.570;8.722;2023-12-28T05:35:02;99845.72;;;14.18;53.07
46366;BME280;72328;49.570;8.722;2023-12-28T05:39:07;99840.19;;;14.12;53.04
46366;BME280;72328;49.570;8.722;2023-12-28T05:43:10;99853.97;;;14.12;53.49
46366;BME280;72328;49.570;8.722;2023-12-28T05:47:11;99838.06;;;14.17;53.31
46366;BME280;72328;49.570;8.722;2023-12-28T05:51:11;99853.03;;;14.13;53.52
46366;BME280;72328;49.570;8.722;2023-12-28T05:55:12;99846.56;;;14.08;53.83
46366;BME280;72328;49.570;8.722;2023-12-28T05:59:15;99852.00;;;14.05;53.82
46366;BME280;72328;49.570;8.722;2023-12-28T06:03:16;99859.31;;;14.00;54.25
46366;BME280;72328;49.570;8.722;2023-12-28T06:07:17;99843.44;;;13.93;54.29
46366;BME280;72328;49.570;8.722;2023-12-28T06:11:18;99841.56;;;13.84;54.31
46366;BME280;72328;49.570;8.722;2023-12-28T06:15:20;99856.63;;;13.79;54.48
46366;BME280;72328;49.570;8.722;2023-12-28T06:19:21;99863.22;;;13.83;54.41
46366;BME280;72328;49.570;8.722;2023-12-28T06:23:22;99863.91;;;13.85;54.30
46366;BME280;72328;49.570;8.722;2023-12-28T06:27:23;99875.78;;;13.88;54.14
46366;BME280;72328;49.570;8.722;2023-12-28T06:31:24;99875.78;;;13.88;54.35
46366;BME280;72328;49.570;8.722;2023-12-28T06:35:24;99854.38;;;13.86;54.53
46366;BME280;72328;49.570;8.722;2023-12-28T06:39:25;99867.91;;;13.89;54.34
46366;BME280;72328;49.570;8.722;2023-12-28T06:43:26;99862.97;;;13.86;54.49
46366;BME280;72328;49.570;8.722;2023-12-28T06:47:26;99872.88;;;13.81;54.50
46366;BME280;72328;49.570;8.722;2023-12-28T06:51:27;99867.81;;;13.80;54.94
46366;BME280;72328;49.570;8.722;2023-12-28T06:55:27;99868.38;;;13.83;55.04
46366;BME280;72328;49.570;8.722;2023-12-28T06:59:28;99857.22;;;13.83;55.16
46366;BME280;72328;49.570;8.722;2023-12-28T07:03:29;99857.22;;;13.83;55.10
46366;BME280;72328;49.570;8.722;2023-12-28T07:07:32;99852.63;;;13.86;55.05
46366;BME280;72328;49.570;8.722;2023-12-28T07:11:33;99866.03;;;13.91;54.90
46366;BME280;72328;49.570;8.722;2023-12-28T07:15:34;99865.09;;;13.92;54.88
46366;BME280;72328;49.570;8.722;2023-12-28T07:19:36;99875.44;;;13.92;54.94
46366;BME280;72328;49.570;8.722;2023-12-28T07:23:37;99882.94;;;13.95;54.91
46366;BME280;72328;49.570;8.722;2023-12-28T07:27:38;99889.78;;;13.96;55.24
46366;BME280;72328;49.570;8.722;2023-12-28T07:31:39;99897.56;;;13.96;55.38
46366;BME280;72328;49.570;8.722;2023-12-28T07:35:39;99898.72;;;13.92;55.18
46366;BME280;72328;49.570;8.722;2023-12-28T07:39:40;99895.19;;;13.93;55.19
46366;BME280;72328;49.570;8.722;2023-12-28T07:43:41;99907.44;;;13.91;55.82
46366;BME280;72328;49.570;8.722;2023-12-28T07:47:42;99898.72;;;13.92;55.63
46366;BME280;72328;49.570;8.722;2023-12-28T07:51:42;99901.78;;;13.97;55.50
46366;BME280;72328;49.570;8.722;2023-12-28T07:55:43;99902.47;;;13.99;55.26
46366;BME280;72328;49.570;8.722;2023-12-28T07:59:44;99903.44;;;13.98;55.51
46366;BME280;72328;49.570;8.722;2023-12-28T08:03:45;99907.78;;;13.98;55.62
46366;BME280;72328;49.570;8.722;2023-12-28T08:07:45;99901.22;;;13.94;55.42
46366;BME280;72328;49.570;8.722;2023-12-28T08:11:46;99903.91;;;13.92;56.20
46366;BME280;72328;49.570;8.722;2023-12-28T08:15:47;99901.44;;;13.91;56.06
46366;BME280;72328;49.570;8.722;2023-12-28T08:19:47;99907.66;;;13.88;56.06
46366;BME280;72328;49.570;8.722;2023-12-28T08:23:48;99919.56;;;13.91;55.92
46366;BME280;72328;49.570;8.722;2023-12-28T08:27:48;99915.91;;;13.93;56.13
46366;BME280;72328;49.570;8.722;2023-12-28T08:31:49;99918.72;;;14.01;56.04
46366;BME280;72328;49.570;8.722;2023-12-28T08:35:50;99926.34;;;14.03;55.77
46366;BME280;72328;49.570;8.722;2023-12-28T08:39:50;99921.31;;;14.01;56.12
46366;BME280;72328;49.570;8.722;2023-12-28T08:43:51;99924.25;;;13.97;56.27
46366;BME280;72328;49.570;8.722;2023-12-28T08:47:54;99915.91;;;13.93;56.26
46366;BME280;72328;49.570;8.722;2023-12-28T08:51:55;99914.94;;;13.94;56.62
46366;BME280;72328;49.570;8.722;2023-12-28T08:55:56;99907.78;;;13.98;56.24
46366;BME280;72328;49.570;8.722;2023-12-28T08:59:57;99926.50;;;14.01;56.42
46366;BME280;72328;49.570;8.722;2023-12-28T09:04:00;99930.59;;;14.04;56.61
46366;BME280;72328;49.570;8.722;2023-12-28T09:08:01;99933.06;;;14.05;56.48
46366;BME280;72328;49.570;8.722;2023-12-28T09:12:02;99922.72;;;14.05;56.60
46366;BME280;72328;49.570;8.722;2023-12-28T09:16:03;99923.44;;;14.07;56.52
46366;BME280;72328;49.570;8.722;2023-12-28T09:20:05;99913.38;;;14.14;56.65
46366;BME280;72328;49.570;8.722;2023-12-28T09:24:07;99912.69;;;14.12;56.94
46366;BME280;72328;49.570;8.722;2023-12-28T09:28:07;99925.28;;;14.16;57.10
46366;BME280;72328;49.570;8.722;2023-12-28T09:32:08;99920.81;;;14.18;57.01
46366;BME280;72328;49.570;8.722;2023-12-28T09:36:09;99929.31;;;14.20;57.40
46366;BME280;72328;49.570;8.722;2023-12-28T09:40:10;99939.91;;;14.28;57.12
46366;BME280;72328;49.570;8.722;2023-12-28T09:44:12;99934.34;;;14.33;56.90
46366;BME280;72328;49.570;8.722;2023-12-28T09:48:15;99948.59;;;14.38;56.81
46366;BME280;72328;49.570;8.722;2023-12-28T09:52:16;99952.94;;;14.38;56.71
46366;BME280;72328;49.570;8.722;2023-12-28T09:56:17;99957.63;;;14.44;56.82
46366;BME280;72328;49.570;8.722;2023-12-28T10:00:18;99944.22;;;14.39;56.90
46366;BME280;72328;49.570;8.722;2023-12-28T10:04:19;99939.28;;;14.36;56.93
46366;BME280;72328;49.570;8.722;2023-12-28T10:08:20;99946.00;;;14.38;56.94
46366;BME280;72328;49.570;8.722;2023-12-28T10:12:21;99929.97;;;14.44;56.92
46366;BME280;72328;49.570;8.722;2023-12-28T10:16:21;99916.44;;;14.41;57.04
46366;BME280;72328;49.570;8.722;2023-12-28T10:20:22;99926.31;;;14.47;57.20
46366;BME280;72328;49.570;8.722;2023-12-28T10:24:26;99934.88;;;14.47;56.94
46366;BME280;72328;49.570;8.722;2023-12-28T10:28:27;99937.59;;;14.46;57.21
46366;BME280;72328;49.570;8.722;2023-12-28T10:32:27;99937.47;;;14.47;57.02
46366;BME280;72328;49.570;8.722;2023-12-28T10:36:28;99929.47;;;14.50;56.97
46366;BME280;72328;49.570;8.722;2023-12-28T10:40:29;99908.78;;;14.39;56.97
46366;BME280;72328;49.570;8.722;2023-12-28T10:44:32;99916.06;;;14.45;57.04
46366;BME280;72328;49.570;8.722;2023-12-28T10:48:37;99921.63;;;14.41;57.34
46366;BME280;72328;49.570;8.722;2023-12-28T10:52:39;99903.84;;;14.36;57.33
46366;BME280;72328;49.570;8.722;2023-12-28T10:56:44;99919.84;;;14.41;57.41
46366;BME280;72328;49.570;8.722;2023-12-28T11:00:58;99917.25;;;14.41;57.13
46366;BME280;72328;49.570;8.722;2023-12-28T11:05:01;99912.91;;;14.42;57.60
46366;BME280;72328;49.570;8.722;2023-12-28T11:09:06;99908.16;;;14.47;57.64
46366;BME280;72328;49.570;8.722;2023-12-28T11:13:07;99916.63;;;14.49;57.54
46366;BME280;72328;49.570;8.722;2023-12-28T11:17:10;99918.16;;;14.51;57.52
46366;BME280;72328;49.570;8.722;2023-12-28T11:21:11;99909.88;;;14.57;57.42
46366;BME280;72328;49.570;8.722;2023-12-28T11:25:16;99900.72;;;14.53;57.59
46366;BME280;72328;49.570;8.722;2023-12-28T11:29:19;99901.09;;;14.49;57.42
46366;BME280;72328;49.570;8.722;2023-12-28T11:33:20;99888.50;;;14.44;57.66
46366;BME280;72328;49.570;8.722;2023-12-28T11:37:20;99886.63;;;14.46;57.51
46366;BME280;72328;49.570;8.722;2023-12-28T11:41:26;99881.31;;;14.48;57.42
46366;BME280;72328;49.570;8.722;2023-12-28T11:45:26;99889.88;;;14.48;57.43
46366;BME280;72328;49.570;8.722;2023-12-28T11:49:27;99890.59;;;14.50;57.67
46366;BME280;72328;49.570;8.722;2023-12-28T11:53:31;99902.16;;;14.46;57.46
46366;BME280;72328;49.570;8.722;2023-12-28T11:57:31;99872.25;;;14.42;57.44
46366;BME280;72328;49.570;8.722;2023-12-28T12:01:32;99879.78;;;14.45;57.58
46366;BME280;72328;49.570;8.722;2023-12-28T12:05:33;99863.53;;;14.43;57.41
46366;BME280;72328;49.570;8.722;2023-12-28T12:09:34;99862.97;;;14.40;57.28
46366;BME280;72328;49.570;8.722;2023-12-28T12:13:35;99851.78;;;14.39;57.24
46366;BME280;72328;49.570;8.722;2023-12-28T12:17:36;99852.25;;;14.44;57.47
46366;BME280;72328;49.570;8.722;2023-12-28T12:21:37;99841.63;;;14.47;57.40
46366;BME280;72328;49.570;8.722;2023-12-28T12:25:38;99846.56;;;14.50;57.35
46366;BME280;72328;49.570;8.722;2023-12-28T12:29:41;99839.47;;;14.52;57.20
46366;BME280;72328;49.570;8.722;2023-12-28T12:33:41;99837.63;;;14.43;57.34
46366;BME280;72328;49.570;8.722;2023-12-28T12:37:43;99844.59;;;14.43;57.28
46366;BME280;72328;49.570;8.722;2023-12-28T12:41:46;99860.81;;;14.45;57.39
46366;BME280;72328;49.570;8.722;2023-12-28T12:45:47;99849.22;;;14.39;57.16
46366;BME280;72328;49.570;8.722;2023-12-28T12:49:51;99843.47;;;14.36;57.36
46366;BME280;72328;49.570;8.722;2023-12-28T12:53:59;99841.59;;;14.27;57.67
46366;BME280;72328;49.570;8.722;2023-12-28T12:58:00;99829.47;;;14.16;57.59
46366;BME280;72328;49.570;8.722;2023-12-28T13:02:00;99828.78;;;14.14;57.86
46366;BME280;72328;49.570;8.722;2023-12-28T13:06:01;99829.00;;;14.11;57.56
46366;BME280;72328;49.570;8.722;2023-12-28T13:10:04;99830.41;;;14.15;58.02
46366;BME280;72328;49.570;8.722;2023-12-28T13:14:06;99822.69;;;14.04;57.93
46366;BME280;72328;49.570;8.722;2023-12-28T13:18:06;99821.53;;;13.97;57.84
46366;BME280;72328;49.570;8.722;2023-12-28T13:22:07;99816.59;;;13.94;58.37
46366;BME280;72328;49.570;8.722;2023-12-28T13:26:08;99821.53;;;13.97;58.08
46366;BME280;72328;49.570;8.722;2023-12-28T13:30:09;99816.97;;;13.90;58.74
46366;BME280;72328;49.570;8.722;2023-12-28T13:34:11;99816.72;;;13.93;58.18
46366;BME280;72328;49.570;8.722;2023-12-28T13:38:12;99806.34;;;13.93;58.33
46366;BME280;72328;49.570;8.722;2023-12-28T13:42:15;99822.16;;;13.90;58.33
46366;BME280;72328;49.570;8.722;2023-12-28T13:46:15;99819.66;;;13.88;58.23
46366;BME280;72328;49.570;8.722;2023-12-28T13:50:16;99794.97;;;13.84;58.72
46366;BME280;72328;49.570;8.722;2023-12-28T13:54:17;99793.78;;;13.88;58.43
46366;BME280;72328;49.570;8.722;2023-12-28T13:58:19;99803.66;;;13.94;58.40
46366;BME280;72328;49.570;8.722;2023-12-28T14:02:20;99804.38;;;13.96;58.14
46366;BME280;72328;49.570;8.722;2023-12-28T14:06:22;99787.88;;;13.97;58.16
46366;BME280;72328;49.570;8.722;2023-12-28T14:10:22;99791.03;;;14.01;57.92
46366;BME280;72328;49.570;8.722;2023-12-28T14:14:23;99782.72;;;13.97;58.41
46366;BME280;72328;49.570;8.722;2023-12-28T14:18:24;99768.38;;;13.93;58.20
46366;BME280;72328;49.570;8.722;2023-12-28T14:22:25;99779.16;;;13.98;58.17
46366;BME280;72328;49.570;8.722;2023-12-28T14:26:26;99790.09;;;14.02;58.17
46366;BME280;72328;49.570;8.722;2023-12-28T14:30:27;99799.38;;;14.04;58.32
46366;BME280;72328;49.570;8.722;2023-12-28T14:34:28;99803.88;;;14.02;58.11
46366;BME280;72328;49.570;8.722;2023-12-28T14:38:31;99808.34;;;14.00;58.33
46366;BME280;72328;49.570;8.722;2023-12-28T14:42:32;99809.41;;;13.98;58.38
46366;BME280;72328;49.570;8.722;2023-12-28T14:46:36;99808.94;;;13.93;58.74
46366;BME280;72328;49.570;8.722;2023-12-28T14:50:37;99785.34;;;13.86;58.72
46366;BME280;72328;49.570;8.722;2023-12-28T14:54:38;99789.09;;;13.82;58.84
46366;BME280;72328;49.570;8.722;2023-12-28T14:58:39;99783.25;;;13.80;59.17
46366;BME280;72328;49.570;8.722;2023-12-28T15:02:41;99763.59;;;13.78;59.03
46366;BME280;72328;49.570;8.722;2023-12-28T15:06:41;99783.94;;;13.82;59.01
46366;BME280;72328;49.570;8.722;2023-12-28T15:10:42;99778.53;;;13.74;58.95
46366;BME280;72328;49.570;8.722;2023-12-28T15:14:43;99775.72;;;13.77;58.71
46366;BME280;72328;49.570;8.722;2023-12-28T15:18:44;99764.16;;;13.81;58.61
46366;BME280;72328;49.570;8.722;2023-12-28T15:22:45;99769.53;;;13.89;58.82
46366;BME280;72328;49.570;8.722;2023-12-28T15:26:46;99781.41;;;13.92;58.71
46366;BME280;72328;49.570;8.722;2023-12-28T15:30:47;99789.69;;;13.86;58.67
46366;BME280;72328;49.570;8.722;2023-12-28T15:34:47;99770.72;;;13.85;58.34
46366;BME280;72328;49.570;8.722;2023-12-28T15:38:48;99765.34;;;13.77;58.88
46366;BME280;72328;49.570;8.722;2023-12-28T15:42:52;99788.19;;;13.72;59.04
46366;BME280;72328;49.570;8.722;2023-12-28T15:46:53;99791.72;;;13.71;58.82
46366;BME280;72328;49.570;8.722;2023-12-28T15:50:55;99778.22;;;13.68;58.50
46366;BME280;72328;49.570;8.722;2023-12-28T15:54:56;99787.13;;;13.75;58.74
46366;BME280;72328;49.570;8.722;2023-12-28T15:58:57;99772.44;;;13.75;58.64
46366;BME280;72328;49.570;8.722;2023-12-28T16:02:57;99779.25;;;13.76;58.56
46366;BME280;72328;49.570;8.722;2023-12-28T16:06:58;99768.06;;;13.76;58.36
46366;BME280;72328;49.570;8.722;2023-12-28T16:10:59;99760.69;;;13.71;58.50
46366;BME280;72328;49.570;8.722;2023-12-28T16:15:01;99768.31;;;13.73;58.40
46366;BME280;72328;49.570;8.722;2023-12-28T16:19:02;99771.38;;;13.67;58.16
46366;BME280;72328;49.570;8.722;2023-12-28T16:23:07;99773.94;;;13.67;58.51
46366;BME280;72328;49.570;8.722;2023-12-28T16:27:08;99766.91;;;13.69;58.32
46366;BME280;72328;49.570;8.722;2023-12-28T16:31:08;99784.91;;;13.70;58.89
46366;BME280;72328;49.570;8.722;2023-12-28T16:35:09;99780.53;;;13.71;58.48
46366;BME280;72328;49.570;8.722;2023-12-28T16:39:10;99783.69;;;13.74;58.44
46366;BME280;72328;49.570;8.722;2023-12-28T16:43:12;99774.19;;;13.75;58.27
46366;BME280;72328;49.570;8.722;2023-12-28T16:47:13;99766.66;;;13.72;58.41
46366;BME280;72328;49.570;8.722;2023-12-28T16:51:14;99770.31;;;13.69;58.31
46366;BME280;72328;49.570;8.722;2023-12-28T16:55:15;99754.19;;;13.66;58.74
46366;BME280;72328;49.570;8.722;2023-12-28T16:59:16;99755.59;;;13.70;58.64
46366;BME280;72328;49.570;8.722;2023-12-28T17:03:16;99763.50;;;13.68;58.69
46366;BME280;72328;49.570;8.722;2023-12-28T17:07:17;99762.19;;;13.74;58.52
46366;BME280;72328;49.570;8.722;2023-12-28T17:11:18;99759.13;;;13.80;58.38
46366;BME280;72328;49.570;8.722;2023-12-28T17:15:19;99756.41;;;13.81;58.39
46366;BME280;72328;49.570;8.722;2023-12-28T17:19:21;99766.19;;;13.78;58.50
46366;BME280;72328;49.570;8.722;2023-12-28T17:23:26;99764.41;;;13.78;58.60
46366;BME280;72328;49.570;8.722;2023-12-28T17:27:33;99764.16;;;13.81;58.75
46366;BME280;72328;49.570;8.722;2023-12-28T17:31:36;99771.69;;;13.84;58.58
46366;BME280;72328;49.570;8.722;2023-12-28T17:35:37;99767.91;;;13.88;58.82
46366;BME280;72328;49.570;8.722;2023-12-28T17:39:39;99767.91;;;13.88;58.61
46366;BME280;72328;49.570;8.722;2023-12-28T17:44:29;99769.66;;;13.88;58.85
46366;BME280;72328;49.570;8.722;2023-12-28T17:48:06;99767.78;;;13.90;58.95
46366;BME280;72328;49.570;8.722;2023-12-28T17:52:07;99763.31;;;13.92;58.62
46366;BME280;72328;49.570;8.722;2023-12-28T17:56:10;99745.75;;;13.95;59.00
46366;BME280;72328;49.570;8.722;2023-12-28T18:00:15;99743.16;;;13.95;59.00
46366;BME280;72328;49.570;8.722;2023-12-28T18:04:16;99746.13;;;13.91;59.04
46366;BME280;72328;49.570;8.722;2023-12-28T18:08:16;99760.47;;;13.95;58.69
46366;BME280;72328;49.570;8.722;2023-12-28T18:12:17;99762.22;;;13.94;58.93
46366;BME280;72328;49.570;8.722;2023-12-28T18:16:18;99767.88;;;13.99;58.95
46366;BME280;72328;49.570;8.722;2023-12-28T18:20:21;99759.16;;;14.00;58.58
46366;BME280;72328;49.570;8.722;2023-12-28T18:24:22;99768.59;;;14.01;58.59
46366;BME280;72328;49.570;8.722;2023-12-28T18:28:22;99774.69;;;14.00;58.48
46366;BME280;72328;49.570;8.722;2023-12-28T18:32:23;99777.53;;;13.97;58.75
46366;BME280;72328;49.570;8.722;2023-12-28T18:36:25;99770.94;;;13.93;59.02
46366;BME280;72328;49.570;8.722;2023-12-28T18:40:26;99778.94;;;13.90;58.75
46366;BME280;72328;49.570;8.722;2023-12-28T18:44:26;99779.09;;;13.89;59.02
46366;BME280;72328;49.570;8.722;2023-12-28T18:48:37;99775.78;;;13.87;58.90
46366;BME280;72328;49.570;8.722;2023-12-28T18:52:37;99783.09;;;13.82;59.30
46366;BME280;72328;49.570;8.722;2023-12-28T18:56:38;99766.41;;;13.75;59.49
46366;BME280;72328;49.570;8.722;2023-12-28T19:00:39;99769.00;;;13.75;59.32
46366;BME280;72328;49.570;8.722;2023-12-28T19:04:41;99779.81;;;13.80;59.18
46366;BME280;72328;49.570;8.722;2023-12-28T19:08:42;99777.81;;;13.83;59.20
46366;BME280;72328;49.570;8.722;2023-12-28T19:12:43;99772.25;;;13.88;59.18
46366;BME280;72328;49.570;8.722;2023-12-28T19:16:44;99769.81;;;13.86;59.00
46366;BME280;72328;49.570;8.722;2023-12-28T19:20:44;99782.38;;;13.91;59.22
46366;BME280;72328;49.570;8.722;2023-12-28T19:24:45;99778.16;;;13.90;58.90
46366;BME280;72328;49.570;8.722;2023-12-28T19:28:47;99776.25;;;13.92;59.19
46366;BME280;72328;49.570;8.722;2023-12-28T19:32:47;99761.09;;;13.87;59.20
46366;BME280;72328;49.570;8.722;2023-12-28T19:36:48;99769.31;;;13.92;58.67
46366;BME280;72328;49.570;8.722;2023-12-28T19:40:49;99758.72;;;13.84;59.19
46366;BME280;72328;49.570;8.722;2023-12-28T19:44:49;99769.25;;;13.83;59.22
46366;BME280;72328;49.570;8.722;2023-12-28T19:48:50;99769.25;;;13.83;59.40
46366;BME280;72328;49.570;8.722;2023-12-28T19:52:51;99764.06;;;13.83;59.54
46366;BME280;72328;49.570;8.722;2023-12-28T19:56:51;99754.06;;;13.78;59.47
46366;BME280;72328;49.570;8.722;2023-12-28T20:00:52;99751.34;;;13.80;59.53
46366;BME280;72328;49.570;8.722;2023-12-28T20:04:52;99749.00;;;13.77;59.51
46366;BME280;72328;49.570;8.722;2023-12-28T20:08:56;99743.81;;;13.77;59.54
46366;BME280;72328;49.570;8.722;2023-12-28T20:12:56;99743.00;;;13.76;59.88
46366;BME280;72328;49.570;8.722;2023-12-28T20:16:57;99744.88;;;13.74;59.64
46366;BME280;72328;49.570;8.722;2023-12-28T20:20:58;99740.19;;;13.68;59.83
46366;BME280;72328;49.570;8.722;2023-12-28T20:24:58;99741.50;;;13.74;59.84
46366;BME280;72328;49.570;8.722;2023-12-28T20:28:59;99731.03;;;13.75;59.56
46366;BME280;72328;49.570;8.722;2023-12-28T20:33:00;99743.81;;;13.77;59.66
46366;BME280;72328;49.570;8.722;2023-12-28T20:37:01;99726.53;;;13.77;59.67
46366;BME280;72328;49.570;8.722;2023-12-28T20:41:02;99725.97;;;13.74;59.77
46366;BME280;72328;49.570;8.722;2023-12-28T20:45:06;99725.25;;;13.72;59.73
46366;BME280;72328;49.570;8.722;2023-12-28T20:49:07;99739.03;;;13.72;59.64
46366;BME280;72328;49.570;8.722;2023-12-28T20:53:08;99747.47;;;13.74;59.95
46366;BME280;72328;49.570;8.722;2023-12-28T20:57:08;99735.38;;;13.75;59.77
46366;BME280;72328;49.570;8.722;2023-12-28T21:01:09;99731.84;;;13.76;60.02
46366;BME280;72328;49.570;8.722;2023-12-28T21:05:10;99721.47;;;13.76;59.83
46366;BME280;72328;49.570;8.722;2023-12-28T21:09:10;99728.91;;;13.80;59.91
46366;BME280;72328;49.570;8.722;2023-12-28T21:13:11;99729.00;;;13.79;59.77
46366;BME280;72328;49.570;8.722;2023-12-28T21:17:18;99724.53;;;13.81;59.75
46366;BME280;72328;49.570;8.722;2023-12-28T21:21:19;99720.06;;;13.83;59.85
46366;BME280;72328;49.570;8.722;2023-12-28T21:25:19;99715.25;;;13.78;59.81